sensor_id;sensor_type;location;lat;lon;timestamp;temperature;humidity
48836;DHT22;62581;47.342;7.908;2022-10-15T00:02:02;15.00;99.90
48836;DHT22;62581;47.342;7.908;2022-10-15T00:04:29;15.00;99.90
48836;DHT22;62581;47.342;7.908;2022-10-15T00:06:56;15.10;99.90
48836;DHT22;62581;47.342;7.908;2022-10-15T00:09:24;15.10;99.90
48836;DHT22;62581;47.342;7.908;2022-10-15T00:11:51;15.10;99.90
48836;DHT22;62581;47.342;7.908;2022-10-15T00:14:18;15.10;99.90
48836;DHT22;62581;47.342;7.908;2022-10-15T00:16:44;15.20;99.90
48836;DHT22;62581;47.342;7.908;2022-10-15T00:19:11;15.20;99.90
48836;DHT22;62581;47.342;7.908;2022-10-15T00:21:38;15.10;99.90
48836;DHT22;62581;47.342;7.908;2022-10-15T00:24:05;15.10;99.90
48836;DHT22;62581;47.342;7.908;2022-10-15T00:26:33;15.10;99.90
48836;DHT22;62581;47.342;7.908;2022-10-15T00:29:01;15.10;99.90
48836;DHT22;62581;47.342;7.908;2022-10-15T00:31:29;15.20;99.90
48836;DHT22;62581;47.342;7.908;2022-10-15T00:33:57;15.10;99.90
48836;DHT22;62581;47.342;7.908;2022-10-15T00:36:25;15.20;99.90
48836;DHT22;62581;47.342;7.908;2022-10-15T00:38:52;15.20;99.90
48836;DHT22;62581;47.342;7.908;2022-10-15T00:41:20;15.20;99.90
48836;DHT22;62581;47.342;7.908;2022-10-15T00:43:49;15.20;99.90
48836;DHT22;62581;47.342;7.908;2022-10-15T00:46:17;15.20;99.90
48836;DHT22;62581;47.342;7.908;2022-10-15T00:48:46;15.30;99.90
48836;DHT22;62581;47.342;7.908;2022-10-15T00:51:14;15.30;99.90
48836;DHT22;62581;47.342;7.908;2022-10-15T00:53:41;15.30;99.90
48836;DHT22;62581;47.342;7.908;2022-10-15T00:56:09;15.40;99.90
48836;DHT22;62581;47.342;7.908;2022-10-15T00:58:36;15.30;99.90
48836;DHT22;62581;47.342;7.908;2022-10-15T01:01:04;15.40;99.90
48836;DHT22;62581;47.342;7.908;2022-10-15T01:03:31;15.40;99.90
48836;DHT22;62581;47.342;7.908;2022-10-15T01:06:00;15.40;99.90
48836;DHT22;62581;47.342;7.908;2022-10-15T01:08:27;15.40;99.90
48836;DHT22;62581;47.342;7.908;2022-10-15T01:10:55;15.40;99.90
48836;DHT22;62581;47.342;7.908;2022-10-15T01:13:26;15.50;99.90
48836;DHT22;62581;47.342;7.908;2022-10-15T01:16:01;15.40;99.90
48836;DHT22;62581;47.342;7.908;2022-10-15T01:18:32;15.40;99.90
48836;DHT22;62581;47.342;7.908;2022-10-15T01:21:03;15.50;99.90
48836;DHT22;62581;47.342;7.908;2022-10-15T01:26:41;15.50;99.90
48836;DHT22;62581;47.342;7.908;2022-10-15T01:29:14;15.50;99.90
48836;DHT22;62581;47.342;7.908;2022-10-15T01:31:48;15.50;99.90
48836;DHT22;62581;47.342;7.908;2022-10-15T01:34:20;15.50;99.90
48836;DHT22;62581;47.342;7.908;2022-10-15T01:36:51;15.50;99.90
48836;DHT22;62581;47.342;7.908;2022-10-15T01:39:22;15.50;99.90
48836;DHT22;62581;47.342;7.908;2022-10-15T01:41:53;15.50;99.90
48836;DHT22;62581;47.342;7.908;2022-10-15T01:44:22;15.50;99.90
48836;DHT22;62581;47.342;7.908;2022-10-15T01:46:51;15.50;99.90
48836;DHT22;62581;47.342;7.908;2022-10-15T01:49:22;15.60;99.90
48836;DHT22;62581;47.342;7.908;2022-10-15T01:51:50;15.50;99.90
48836;DHT22;62581;47.342;7.908;2022-10-15T01:54:18;15.50;99.90
48836;DHT22;62581;47.342;7.908;2022-10-15T01:56:47;15.50;99.90
48836;DHT22;62581;47.342;7.908;2022-10-15T01:59:15;15.50;99.90
48836;DHT22;62581;47.342;7.908;2022-10-15T02:01:43;15.50;99.90
48836;DHT22;62581;47.342;7.908;2022-10-15T02:04:18;15.50;99.90
48836;DHT22;62581;47.342;7.908;2022-10-15T02:06:47;15.50;99.90
48836;DHT22;62581;47.342;7.908;2022-10-15T02:09:16;15.50;99.90
48836;DHT22;62581;47.342;7.908;2022-10-15T02:11:47;15.50;99.90
48836;DHT22;62581;47.342;7.908;2022-10-15T02:14:18;15.50;99.90
48836;DHT22;62581;47.342;7.908;2022-10-15T02:16:48;15.50;99.90
48836;DHT22;62581;47.342;7.908;2022-10-15T02:19:20;15.50;99.90
48836;DHT22;62581;47.342;7.908;2022-10-15T02:21:50;15.50;99.90
48836;DHT22;62581;47.342;7.908;2022-10-15T02:24:18;15.50;99.90
48836;DHT22;62581;47.342;7.908;2022-10-15T02:26:47;15.60;99.90
48836;DHT22;62581;47.342;7.908;2022-10-15T02:29:15;15.60;99.90
48836;DHT22;62581;47.342;7.908;2022-10-15T02:31:43;15.60;99.90
48836;DHT22;62581;47.342;7.908;2022-10-15T02:34:13;15.60;99.90
48836;DHT22;62581;47.342;7.908;2022-10-15T02:36:42;15.60;99.90
48836;DHT22;62581;47.342;7.908;2022-10-15T02:39:10;15.60;99.90
48836;DHT22;62581;47.342;7.908;2022-10-15T02:41:37;15.60;99.90
48836;DHT22;62581;47.342;7.908;2022-10-15T02:44:04;15.60;99.90
48836;DHT22;62581;47.342;7.908;2022-10-15T02:46:31;15.60;99.90
48836;DHT22;62581;47.342;7.908;2022-10-15T02:48:58;15.60;99.90
48836;DHT22;62581;47.342;7.908;2022-10-15T02:51:25;15.70;99.90
48836;DHT22;62581;47.342;7.908;2022-10-15T02:53:53;15.70;99.90
48836;DHT22;62581;47.342;7.908;2022-10-15T02:56:20;15.70;99.90
48836;DHT22;62581;47.342;7.908;2022-10-15T02:58:46;15.70;99.90
48836;DHT22;62581;47.342;7.908;2022-10-15T03:01:13;15.70;99.90
48836;DHT22;62581;47.342;7.908;2022-10-15T03:03:40;15.70;99.90
48836;DHT22;62581;47.342;7.908;2022-10-15T03:06:07;15.60;99.90
48836;DHT22;62581;47.342;7.908;2022-10-15T03:08:33;15.60;99.90
48836;DHT22;62581;47.342;7.908;2022-10-15T03:11:01;15.60;99.90
48836;DHT22;62581;47.342;7.908;2022-10-15T03:13:28;15.60;99.90
48836;DHT22;62581;47.342;7.908;2022-10-15T03:15:55;15.60;99.90
48836;DHT22;62581;47.342;7.908;2022-10-15T03:18:22;15.60;99.90
48836;DHT22;62581;47.342;7.908;2022-10-15T03:20:52;15.60;99.90
48836;DHT22;62581;47.342;7.908;2022-10-15T03:23:18;15.60;99.90
48836;DHT22;62581;47.342;7.908;2022-10-15T03:25:45;15.60;99.90
48836;DHT22;62581;47.342;7.908;2022-10-15T03:28:13;15.60;99.90
48836;DHT22;62581;47.342;7.908;2022-10-15T03:30:40;15.60;99.90
48836;DHT22;62581;47.342;7.908;2022-10-15T03:33:07;15.60;99.90
48836;DHT22;62581;47.342;7.908;2022-10-15T03:35:34;15.70;99.90
48836;DHT22;62581;47.342;7.908;2022-10-15T03:38:01;15.70;99.90
48836;DHT22;62581;47.342;7.908;2022-10-15T03:40:28;15.70;99.90
48836;DHT22;62581;47.342;7.908;2022-10-15T03:42:55;15.80;99.90
48836;DHT22;62581;47.342;7.908;2022-10-15T03:45:23;15.70;99.90
48836;DHT22;62581;47.342;7.908;2022-10-15T03:47:50;15.70;99.90
48836;DHT22;62581;47.342;7.908;2022-10-15T03:50:17;15.70;99.90
48836;DHT22;62581;47.342;7.908;2022-10-15T03:52:44;15.70;99.90
48836;DHT22;62581;47.342;7.908;2022-10-15T03:55:11;15.70;99.90
48836;DHT22;62581;47.342;7.908;2022-10-15T03:57:37;15.70;99.90
48836;DHT22;62581;47.342;7.908;2022-10-15T04:00:05;15.60;99.90
48836;DHT22;62581;47.342;7.908;2022-10-15T04:02:34;15.70;99.90
48836;DHT22;62581;47.342;7.908;2022-10-15T04:05:00;15.70;99.90
48836;DHT22;62581;47.342;7.908;2022-10-15T04:07:27;15.70;99.90
48836;DHT22;62581;47.342;7.908;2022-10-15T04:09:54;15.70;99.90
48836;DHT22;62581;47.342;7.908;2022-10-15T04:12:21;15.80;99.90
48836;DHT22;62581;47.342;7.908;2022-10-15T04:14:47;15.80;99.90
48836;DHT22;62581;47.342;7.908;2022-10-15T04:17:14;15.90;99.90
48836;DHT22;62581;47.342;7.908;2022-10-15T04:19:43;15.90;99.90
48836;DHT22;62581;47.342;7.908;2022-10-15T04:22:09;16.00;99.90
48836;DHT22;62581;47.342;7.908;2022-10-15T04:24:36;16.00;99.90
48836;DHT22;62581;47.342;7.908;2022-10-15T04:27:03;16.00;99.90
48836;DHT22;62581;47.342;7.908;2022-10-15T04:29:30;16.00;99.90
48836;DHT22;62581;47.342;7.908;2022-10-15T04:31:56;16.00;99.90
48836;DHT22;62581;47.342;7.908;2022-10-15T04:34:24;16.00;99.90
48836;DHT22;62581;47.342;7.908;2022-10-15T04:36:52;16.00;99.90
48836;DHT22;62581;47.342;7.908;2022-10-15T04:39:20;16.00;99.90
48836;DHT22;62581;47.342;7.908;2022-10-15T04:41:47;15.90;99.90
48836;DHT22;62581;47.342;7.908;2022-10-15T04:44:13;15.90;99.90
48836;DHT22;62581;47.342;7.908;2022-10-15T04:46:40;15.80;99.90
48836;DHT22;62581;47.342;7.908;2022-10-15T04:49:07;15.80;99.90
48836;DHT22;62581;47.342;7.908;2022-10-15T04:51:34;15.80;99.90
48836;DHT22;62581;47.342;7.908;2022-10-15T04:54:03;15.80;99.90
48836;DHT22;62581;47.342;7.908;2022-10-15T04:56:30;15.70;99.90
48836;DHT22;62581;47.342;7.908;2022-10-15T04:58:57;15.70;99.90
48836;DHT22;62581;47.342;7.908;2022-10-15T05:01:23;15.70;99.90
48836;DHT22;62581;47.342;7.908;2022-10-15T05:03:50;15.70;99.90
48836;DHT22;62581;47.342;7.908;2022-10-15T05:06:18;15.70;99.90
48836;DHT22;62581;47.342;7.908;2022-10-15T05:08:45;15.60;99.90
48836;DHT22;62581;47.342;7.908;2022-10-15T05:11:14;15.70;99.90
48836;DHT22;62581;47.342;7.908;2022-10-15T05:13:41;15.60;99.90
48836;DHT22;62581;47.342;7.908;2022-10-15T05:16:08;15.60;99.90
48836;DHT22;62581;47.342;7.908;2022-10-15T05:18:35;15.60;99.90
48836;DHT22;62581;47.342;7.908;2022-10-15T05:21:03;15.60;99.90
48836;DHT22;62581;47.342;7.908;2022-10-15T05:23:30;15.70;99.90
48836;DHT22;62581;47.342;7.908;2022-10-15T05:25:58;15.60;99.90
48836;DHT22;62581;47.342;7.908;2022-10-15T05:28:26;15.60;99.90
48836;DHT22;62581;47.342;7.908;2022-10-15T05:30:53;15.60;99.90
48836;DHT22;62581;47.342;7.908;2022-10-15T05:33:19;15.70;99.90
48836;DHT22;62581;47.342;7.908;2022-10-15T05:35:46;15.60;99.90
48836;DHT22;62581;47.342;7.908;2022-10-15T05:38:13;15.60;99.90
48836;DHT22;62581;47.342;7.908;2022-10-15T05:40:40;15.60;99.90
48836;DHT22;62581;47.342;7.908;2022-10-15T05:43:06;15.60;99.90
48836;DHT22;62581;47.342;7.908;2022-10-15T05:45:35;15.60;99.90
48836;DHT22;62581;47.342;7.908;2022-10-15T05:48:01;15.50;99.90
48836;DHT22;62581;47.342;7.908;2022-10-15T05:50:28;15.50;99.90
48836;DHT22;62581;47.342;7.908;2022-10-15T05:52:55;15.50;99.90
48836;DHT22;62581;47.342;7.908;2022-10-15T05:55:22;15.60;99.90
48836;DHT22;62581;47.342;7.908;2022-10-15T05:57:48;15.50;99.90
48836;DHT22;62581;47.342;7.908;2022-10-15T06:00:15;15.50;99.90
48836;DHT22;62581;47.342;7.908;2022-10-15T06:02:43;15.50;99.90
48836;DHT22;62581;47.342;7.908;2022-10-15T06:05:10;15.50;99.90
48836;DHT22;62581;47.342;7.908;2022-10-15T06:07:37;15.60;99.90
48836;DHT22;62581;47.342;7.908;2022-10-15T06:10:04;15.60;99.90
48836;DHT22;62581;47.342;7.908;2022-10-15T06:12:30;15.70;99.90
48836;DHT22;62581;47.342;7.908;2022-10-15T06:14:57;15.70;99.90
48836;DHT22;62581;47.342;7.908;2022-10-15T06:17:24;15.60;99.90
48836;DHT22;62581;47.342;7.908;2022-10-15T06:19:52;15.70;99.90
48836;DHT22;62581;47.342;7.908;2022-10-15T06:22:19;15.70;99.90
48836;DHT22;62581;47.342;7.908;2022-10-15T06:24:45;15.70;99.90
48836;DHT22;62581;47.342;7.908;2022-10-15T06:27:12;15.70;99.90
48836;DHT22;62581;47.342;7.908;2022-10-15T06:29:39;15.80;99.90
48836;DHT22;62581;47.342;7.908;2022-10-15T06:32:08;15.80;99.90
48836;DHT22;62581;47.342;7.908;2022-10-15T06:34:34;15.80;99.90
48836;DHT22;62581;47.342;7.908;2022-10-15T06:37:02;15.80;99.90
48836;DHT22;62581;47.342;7.908;2022-10-15T06:39:29;15.90;99.90
48836;DHT22;62581;47.342;7.908;2022-10-15T06:41:56;15.90;99.90
48836;DHT22;62581;47.342;7.908;2022-10-15T06:44:23;15.90;99.90
48836;DHT22;62581;47.342;7.908;2022-10-15T06:46:50;15.90;99.90
48836;DHT22;62581;47.342;7.908;2022-10-15T06:49:17;16.00;99.90
48836;DHT22;62581;47.342;7.908;2022-10-15T06:51:43;16.00;99.90
48836;DHT22;62581;47.342;7.908;2022-10-15T06:54:12;16.00;99.90
48836;DHT22;62581;47.342;7.908;2022-10-15T06:56:39;16.10;99.90
48836;DHT22;62581;47.342;7.908;2022-10-15T06:59:05;16.10;99.90
48836;DHT22;62581;47.342;7.908;2022-10-15T07:01:32;16.10;99.90
48836;DHT22;62581;47.342;7.908;2022-10-15T07:03:59;16.20;99.90
48836;DHT22;62581;47.342;7.908;2022-10-15T07:06:26;16.30;99.90
48836;DHT22;62581;47.342;7.908;2022-10-15T07:08:52;16.30;99.90
48836;DHT22;62581;47.342;7.908;2022-10-15T07:11:21;16.40;99.90
48836;DHT22;62581;47.342;7.908;2022-10-15T07:13:47;16.50;99.90
48836;DHT22;62581;47.342;7.908;2022-10-15T07:16:14;16.50;99.90
48836;DHT22;62581;47.342;7.908;2022-10-15T07:18:41;16.70;99.90
48836;DHT22;62581;47.342;7.908;2022-10-15T07:21:08;16.70;99.90
48836;DHT22;62581;47.342;7.908;2022-10-15T07:23:35;16.70;99.90
48836;DHT22;62581;47.342;7.908;2022-10-15T07:26:02;16.70;99.90
48836;DHT22;62581;47.342;7.908;2022-10-15T07:28:30;16.70;99.90
48836;DHT22;62581;47.342;7.908;2022-10-15T07:30:59;16.70;99.90
48836;DHT22;62581;47.342;7.908;2022-10-15T07:33:26;16.80;99.90
48836;DHT22;62581;47.342;7.908;2022-10-15T07:35:53;16.80;99.90
48836;DHT22;62581;47.342;7.908;2022-10-15T07:38:19;17.00;99.90
48836;DHT22;62581;47.342;7.908;2022-10-15T07:40:46;17.00;99.90
48836;DHT22;62581;47.342;7.908;2022-10-15T07:43:13;17.00;99.90
48836;DHT22;62581;47.342;7.908;2022-10-15T07:45:41;17.10;99.90
48836;DHT22;62581;47.342;7.908;2022-10-15T07:48:09;17.10;99.90
48836;DHT22;62581;47.342;7.908;2022-10-15T07:50:35;17.20;99.90
48836;DHT22;62581;47.342;7.908;2022-10-15T07:53:02;17.30;99.90
48836;DHT22;62581;47.342;7.908;2022-10-15T07:55:29;17.30;99.90
48836;DHT22;62581;47.342;7.908;2022-10-15T07:57:56;17.40;99.90
48836;DHT22;62581;47.342;7.908;2022-10-15T08:00:23;17.50;99.90
48836;DHT22;62581;47.342;7.908;2022-10-15T08:02:51;17.50;99.90
48836;DHT22;62581;47.342;7.908;2022-10-15T08:05:18;17.40;99.90
48836;DHT22;62581;47.342;7.908;2022-10-15T08:07:45;17.40;99.90
48836;DHT22;62581;47.342;7.908;2022-10-15T08:10:11;17.50;99.90
48836;DHT22;62581;47.342;7.908;2022-10-15T08:12:38;17.50;99.90
48836;DHT22;62581;47.342;7.908;2022-10-15T08:15:05;17.60;99.90
48836;DHT22;62581;47.342;7.908;2022-10-15T08:17:32;17.60;99.90
48836;DHT22;62581;47.342;7.908;2022-10-15T08:20:00;17.60;99.90
48836;DHT22;62581;47.342;7.908;2022-10-15T08:22:27;17.70;99.90
48836;DHT22;62581;47.342;7.908;2022-10-15T08:24:54;17.80;99.90
48836;DHT22;62581;47.342;7.908;2022-10-15T08:27:21;17.80;99.90
48836;DHT22;62581;47.342;7.908;2022-10-15T08:29:48;17.80;99.90
48836;DHT22;62581;47.342;7.908;2022-10-15T08:32:14;17.80;99.90
48836;DHT22;62581;47.342;7.908;2022-10-15T08:34:41;17.90;99.90
48836;DHT22;62581;47.342;7.908;2022-10-15T08:37:09;18.00;99.90
48836;DHT22;62581;47.342;7.908;2022-10-15T08:39:36;18.10;99.90
48836;DHT22;62581;47.342;7.908;2022-10-15T08:42:03;18.10;99.90
48836;DHT22;62581;47.342;7.908;2022-10-15T08:44:33;18.10;99.90
48836;DHT22;62581;47.342;7.908;2022-10-15T08:47:03;18.10;99.90
48836;DHT22;62581;47.342;7.908;2022-10-15T08:49:34;18.10;99.90
48836;DHT22;62581;47.342;7.908;2022-10-15T08:52:06;18.20;99.90
48836;DHT22;62581;47.342;7.908;2022-10-15T08:54:35;18.20;99.90
48836;DHT22;62581;47.342;7.908;2022-10-15T08:57:06;18.30;99.90
48836;DHT22;62581;47.342;7.908;2022-10-15T08:59:35;18.20;99.90
48836;DHT22;62581;47.342;7.908;2022-10-15T09:02:06;18.20;99.90
48836;DHT22;62581;47.342;7.908;2022-10-15T09:04:36;18.30;99.90
48836;DHT22;62581;47.342;7.908;2022-10-15T09:07:08;18.30;99.90
48836;DHT22;62581;47.342;7.908;2022-10-15T09:09:39;18.30;99.90
48836;DHT22;62581;47.342;7.908;2022-10-15T09:12:12;18.30;99.90
48836;DHT22;62581;47.342;7.908;2022-10-15T09:14:42;18.30;99.90
48836;DHT22;62581;47.342;7.908;2022-10-15T09:17:13;18.30;99.90
48836;DHT22;62581;47.342;7.908;2022-10-15T09:19:40;18.30;99.90
48836;DHT22;62581;47.342;7.908;2022-10-15T09:22:09;18.20;99.90
48836;DHT22;62581;47.342;7.908;2022-10-15T09:24:39;18.10;99.90
48836;DHT22;62581;47.342;7.908;2022-10-15T09:27:07;18.20;99.90
48836;DHT22;62581;47.342;7.908;2022-10-15T09:29:36;18.10;99.90
48836;DHT22;62581;47.342;7.908;2022-10-15T09:32:07;18.10;99.90
48836;DHT22;62581;47.342;7.908;2022-10-15T09:34:38;18.10;99.90
48836;DHT22;62581;47.342;7.908;2022-10-15T09:37:08;18.20;99.90
48836;DHT22;62581;47.342;7.908;2022-10-15T09:39:43;18.20;99.90
48836;DHT22;62581;47.342;7.908;2022-10-15T09:42:14;18.30;99.90
48836;DHT22;62581;47.342;7.908;2022-10-15T09:44:43;18.30;99.90
48836;DHT22;62581;47.342;7.908;2022-10-15T09:47:14;18.30;99.90
48836;DHT22;62581;47.342;7.908;2022-10-15T09:49:42;18.30;99.90
48836;DHT22;62581;47.342;7.908;2022-10-15T09:52:10;18.30;99.90
48836;DHT22;62581;47.342;7.908;2022-10-15T09:54:39;18.40;99.90
48836;DHT22;62581;47.342;7.908;2022-10-15T09:57:10;18.40;99.90
48836;DHT22;62581;47.342;7.908;2022-10-15T09:59:40;18.30;99.90
48836;DHT22;62581;47.342;7.908;2022-10-15T10:02:17;18.40;99.90
48836;DHT22;62581;47.342;7.908;2022-10-15T10:04:44;18.50;99.90
48836;DHT22;62581;47.342;7.908;2022-10-15T10:07:26;18.50;99.90
48836;DHT22;62581;47.342;7.908;2022-10-15T10:09:54;18.60;99.90
48836;DHT22;62581;47.342;7.908;2022-10-15T10:12:24;18.70;99.90
48836;DHT22;62581;47.342;7.908;2022-10-15T10:14:52;18.70;99.90
48836;DHT22;62581;47.342;7.908;2022-10-15T10:17:20;18.70;99.90
48836;DHT22;62581;47.342;7.908;2022-10-15T10:20:01;18.80;99.90
48836;DHT22;62581;47.342;7.908;2022-10-15T10:22:28;18.90;99.90
48836;DHT22;62581;47.342;7.908;2022-10-15T10:24:55;18.90;99.90
48836;DHT22;62581;47.342;7.908;2022-10-15T10:27:24;18.90;99.90
48836;DHT22;62581;47.342;7.908;2022-10-15T10:29:54;19.00;99.90
48836;DHT22;62581;47.342;7.908;2022-10-15T10:32:25;19.20;99.90
48836;DHT22;62581;47.342;7.908;2022-10-15T10:34:52;19.30;99.90
48836;DHT22;62581;47.342;7.908;2022-10-15T10:37:19;19.40;99.90
48836;DHT22;62581;47.342;7.908;2022-10-15T10:39:50;19.40;99.90
48836;DHT22;62581;47.342;7.908;2022-10-15T10:45:16;19.70;99.90
48836;DHT22;62581;47.342;7.908;2022-10-15T10:47:45;19.90;99.90
48836;DHT22;62581;47.342;7.908;2022-10-15T10:50:25;20.10;99.90
48836;DHT22;62581;47.342;7.908;2022-10-15T10:52:52;20.20;99.90
48836;DHT22;62581;47.342;7.908;2022-10-15T10:55:20;20.10;99.90
48836;DHT22;62581;47.342;7.908;2022-10-15T10:57:50;20.00;99.90
48836;DHT22;62581;47.342;7.908;2022-10-15T11:00:19;20.00;99.90
48836;DHT22;62581;47.342;7.908;2022-10-15T11:02:47;20.10;99.90
48836;DHT22;62581;47.342;7.908;2022-10-15T11:05:13;20.20;99.90
48836;DHT22;62581;47.342;7.908;2022-10-15T11:07:44;20.10;99.90
48836;DHT22;62581;47.342;7.908;2022-10-15T11:10:15;20.10;99.90
48836;DHT22;62581;47.342;7.908;2022-10-15T11:12:53;20.30;99.90
48836;DHT22;62581;47.342;7.908;2022-10-15T11:15:27;20.40;99.90
48836;DHT22;62581;47.342;7.908;2022-10-15T11:18:00;20.50;99.90
48836;DHT22;62581;47.342;7.908;2022-10-15T11:20:30;20.70;99.90
48836;DHT22;62581;47.342;7.908;2022-10-15T11:23:02;21.00;99.90
48836;DHT22;62581;47.342;7.908;2022-10-15T11:25:33;21.20;99.90
48836;DHT22;62581;47.342;7.908;2022-10-15T11:28:10;21.50;99.90
48836;DHT22;62581;47.342;7.908;2022-10-15T11:30:44;21.70;99.90
48836;DHT22;62581;47.342;7.908;2022-10-15T11:33:24;22.00;99.90
48836;DHT22;62581;47.342;7.908;2022-10-15T11:35:57;21.90;99.90
48836;DHT22;62581;47.342;7.908;2022-10-15T11:38:27;22.00;99.90
48836;DHT22;62581;47.342;7.908;2022-10-15T11:41:01;22.30;99.90
48836;DHT22;62581;47.342;7.908;2022-10-15T11:43:35;22.70;99.90
48836;DHT22;62581;47.342;7.908;2022-10-15T11:46:07;23.00;99.90
48836;DHT22;62581;47.342;7.908;2022-10-15T11:48:39;23.20;99.90
48836;DHT22;62581;47.342;7.908;2022-10-15T11:51:09;23.30;99.90
48836;DHT22;62581;47.342;7.908;2022-10-15T11:53:43;23.40;99.90
48836;DHT22;62581;47.342;7.908;2022-10-15T11:56:13;23.40;99.90
48836;DHT22;62581;47.342;7.908;2022-10-15T11:58:42;23.30;99.90
48836;DHT22;62581;47.342;7.908;2022-10-15T12:01:14;23.20;99.90
48836;DHT22;62581;47.342;7.908;2022-10-15T12:03:46;23.30;99.90
48836;DHT22;62581;47.342;7.908;2022-10-15T12:06:15;23.30;99.90
48836;DHT22;62581;47.342;7.908;2022-10-15T12:08:42;23.50;99.90
48836;DHT22;62581;47.342;7.908;2022-10-15T12:11:15;23.60;99.90
48836;DHT22;62581;47.342;7.908;2022-10-15T12:13:46;23.80;99.90
48836;DHT22;62581;47.342;7.908;2022-10-15T12:16:18;23.60;99.90
48836;DHT22;62581;47.342;7.908;2022-10-15T12:18:49;23.50;99.90
48836;DHT22;62581;47.342;7.908;2022-10-15T12:21:27;23.30;99.90
48836;DHT22;62581;47.342;7.908;2022-10-15T12:24:04;23.20;99.90
48836;DHT22;62581;47.342;7.908;2022-10-15T12:26:35;23.40;99.90
48836;DHT22;62581;47.342;7.908;2022-10-15T12:29:03;23.40;99.90
48836;DHT22;62581;47.342;7.908;2022-10-15T12:31:46;23.20;99.90
48836;DHT22;62581;47.342;7.908;2022-10-15T12:34:24;23.00;99.90
48836;DHT22;62581;47.342;7.908;2022-10-15T12:36:58;22.80;99.90
48836;DHT22;62581;47.342;7.908;2022-10-15T12:39:25;22.40;99.90
48836;DHT22;62581;47.342;7.908;2022-10-15T12:41:51;22.50;99.90
48836;DHT22;62581;47.342;7.908;2022-10-15T12:44:19;22.50;99.90
48836;DHT22;62581;47.342;7.908;2022-10-15T12:46:47;22.80;99.90
48836;DHT22;62581;47.342;7.908;2022-10-15T12:52:00;23.40;99.90
48836;DHT22;62581;47.342;7.908;2022-10-15T12:54:34;23.40;99.90
48836;DHT22;62581;47.342;7.908;2022-10-15T12:57:01;23.80;99.90
48836;DHT22;62581;47.342;7.908;2022-10-15T13:05:22;23.80;99.90
48836;DHT22;62581;47.342;7.908;2022-10-15T13:07:49;23.50;99.90
48836;DHT22;62581;47.342;7.908;2022-10-15T13:10:18;23.00;99.90
48836;DHT22;62581;47.342;7.908;2022-10-15T13:12:49;22.90;99.90
48836;DHT22;62581;47.342;7.908;2022-10-15T13:15:16;22.80;99.90
48836;DHT22;62581;47.342;7.908;2022-10-15T13:17:43;22.70;99.90
48836;DHT22;62581;47.342;7.908;2022-10-15T13:20:22;22.60;99.90
48836;DHT22;62581;47.342;7.908;2022-10-15T13:22:52;22.40;99.90
48836;DHT22;62581;47.342;7.908;2022-10-15T13:25:32;22.30;99.90
48836;DHT22;62581;47.342;7.908;2022-10-15T13:27:59;22.10;99.90
48836;DHT22;62581;47.342;7.908;2022-10-15T13:30:25;21.90;99.90
48836;DHT22;62581;47.342;7.908;2022-10-15T13:32:52;21.90;99.90
48836;DHT22;62581;47.342;7.908;2022-10-15T13:35:22;21.90;99.90
48836;DHT22;62581;47.342;7.908;2022-10-15T13:37:50;21.90;99.90
48836;DHT22;62581;47.342;7.908;2022-10-15T13:40:17;21.70;99.90
48836;DHT22;62581;47.342;7.908;2022-10-15T13:42:56;21.60;99.90
48836;DHT22;62581;47.342;7.908;2022-10-15T13:45:23;21.50;99.90
48836;DHT22;62581;47.342;7.908;2022-10-15T13:47:50;21.40;99.90
48836;DHT22;62581;47.342;7.908;2022-10-15T13:50:22;21.40;99.90
48836;DHT22;62581;47.342;7.908;2022-10-15T13:52:51;21.40;99.90
48836;DHT22;62581;47.342;7.908;2022-10-15T13:55:25;21.40;99.90
48836;DHT22;62581;47.342;7.908;2022-10-15T13:57:55;21.50;99.90
48836;DHT22;62581;47.342;7.908;2022-10-15T14:00:24;21.60;99.90
48836;DHT22;62581;47.342;7.908;2022-10-15T14:05:38;21.50;99.90
48836;DHT22;62581;47.342;7.908;2022-10-15T14:08:11;21.50;99.90
48836;DHT22;62581;47.342;7.908;2022-10-15T14:10:38;21.50;99.90
48836;DHT22;62581;47.342;7.908;2022-10-15T14:13:05;21.50;99.90
48836;DHT22;62581;47.342;7.908;2022-10-15T14:15:48;21.50;99.90
48836;DHT22;62581;47.342;7.908;2022-10-15T14:18:16;21.50;99.90
48836;DHT22;62581;47.342;7.908;2022-10-15T14:20:45;21.40;99.90
48836;DHT22;62581;47.342;7.908;2022-10-15T14:23:14;21.40;99.90
48836;DHT22;62581;47.342;7.908;2022-10-15T14:25:41;21.30;99.90
48836;DHT22;62581;47.342;7.908;2022-10-15T14:28:14;21.30;99.90
48836;DHT22;62581;47.342;7.908;2022-10-15T14:30:44;21.30;99.90
48836;DHT22;62581;47.342;7.908;2022-10-15T14:36:03;21.40;99.90
48836;DHT22;62581;47.342;7.908;2022-10-15T14:38:30;21.50;99.90
48836;DHT22;62581;47.342;7.908;2022-10-15T14:40:57;21.60;99.90
48836;DHT22;62581;47.342;7.908;2022-10-15T14:43:28;21.70;99.90
48836;DHT22;62581;47.342;7.908;2022-10-15T14:45:56;21.80;99.90
48836;DHT22;62581;47.342;7.908;2022-10-15T14:48:24;21.90;99.90
48836;DHT22;62581;47.342;7.908;2022-10-15T14:50:51;21.90;99.90
48836;DHT22;62581;47.342;7.908;2022-10-15T14:53:24;21.90;99.90
48836;DHT22;62581;47.342;7.908;2022-10-15T14:56:04;22.00;99.90
48836;DHT22;62581;47.342;7.908;2022-10-15T14:58:33;22.10;99.90
48836;DHT22;62581;47.342;7.908;2022-10-15T15:01:03;22.20;99.90
48836;DHT22;62581;47.342;7.908;2022-10-15T15:03:37;22.40;99.90
48836;DHT22;62581;47.342;7.908;2022-10-15T15:06:04;22.50;99.90
48836;DHT22;62581;47.342;7.908;2022-10-15T15:08:33;22.70;99.90
48836;DHT22;62581;47.342;7.908;2022-10-15T15:11:00;23.50;99.90
48836;DHT22;62581;47.342;7.908;2022-10-15T15:13:30;24.30;99.90
48836;DHT22;62581;47.342;7.908;2022-10-15T15:15:57;24.60;99.90
48836;DHT22;62581;47.342;7.908;2022-10-15T15:18:24;25.60;99.90
48836;DHT22;62581;47.342;7.908;2022-10-15T15:20:58;27.00;99.90
48836;DHT22;62581;47.342;7.908;2022-10-15T15:23:26;27.80;99.90
48836;DHT22;62581;47.342;7.908;2022-10-15T15:25:55;28.50;99.90
48836;DHT22;62581;47.342;7.908;2022-10-15T15:28:23;27.80;99.90
48836;DHT22;62581;47.342;7.908;2022-10-15T15:30:53;27.10;99.90
48836;DHT22;62581;47.342;7.908;2022-10-15T15:33:20;27.10;99.90
48836;DHT22;62581;47.342;7.908;2022-10-15T15:35:47;27.10;99.90
48836;DHT22;62581;47.342;7.908;2022-10-15T15:38:16;26.60;99.90
48836;DHT22;62581;47.342;7.908;2022-10-15T15:40:43;25.90;99.90
48836;DHT22;62581;47.342;7.908;2022-10-15T15:43:12;25.30;99.90
48836;DHT22;62581;47.342;7.908;2022-10-15T15:45:40;24.70;99.90
48836;DHT22;62581;47.342;7.908;2022-10-15T15:48:06;24.20;99.90
48836;DHT22;62581;47.342;7.908;2022-10-15T15:50:34;23.50;99.90
48836;DHT22;62581;47.342;7.908;2022-10-15T15:53:01;23.00;99.90
48836;DHT22;62581;47.342;7.908;2022-10-15T15:55:28;22.70;99.90
48836;DHT22;62581;47.342;7.908;2022-10-15T15:57:55;22.50;99.90
48836;DHT22;62581;47.342;7.908;2022-10-15T16:00:23;22.10;99.90